Time;durP1;ratioP1;P1;durP2;ratioP2;P2;SDS_P1;SDS_P2;PMS_P1;PMS_P2;Temp;Humidity;BMP_temperature;BMP_pressure;BME280_temperature;BME280_humidity;BME280_pressure;Samples;Min_cycle;Max_cycle;Signal;HPM_P1;HPM_P2
2022/05/14 00:00:50;;;;;;;;;;;22.20;52.00;;;;;;4968442;28;87554;-48
2022/05/14 00:03:17;;;;;;;;;;;22.20;52.10;;;;;;4968993;28;86024;-48
2022/05/14 00:05:43;;;;;;;;;;;22.20;52.00;;;;;;4968701;28;87044;-48
2022/05/14 00:08:09;;;;;;;;;;;22.20;52.00;;;;;;4970912;28;88532;-48
2022/05/14 00:13:19;;;;;;;;;;;22.20;52.00;;;;;;4965151;28;87204;-48
2022/05/14 00:15:45;;;;;;;;;;;22.10;52.00;;;;;;4968448;28;86860;-48
2022/05/14 00:18:11;;;;;;;;;;;22.10;52.00;;;;;;4968583;28;86935;-48
2022/05/14 00:20:37;;;;;;;;;;;22.10;52.00;;;;;;4967895;28;88578;-48
2022/05/14 00:23:03;;;;;;;;;;;22.10;52.00;;;;;;4968513;28;86914;-48
2022/05/14 00:25:29;;;;;;;;;;;22.10;52.00;;;;;;4968334;28;87931;-48
2022/05/14 00:27:54;;;;;;;;;;;22.10;52.00;;;;;;4968381;28;86944;-48
2022/05/14 00:30:23;;;;;;;;;;;22.10;52.00;;;;;;4971003;28;86789;-48
2022/05/14 00:32:49;;;;;;;;;;;22.00;51.90;;;;;;4967784;28;87617;-48
2022/05/14 00:35:15;;;;;;;;;;;22.00;52.00;;;;;;4966028;28;87819;-48
2022/05/14 00:37:41;;;;;;;;;;;22.00;52.00;;;;;;4968023;28;88030;-48
2022/05/14 00:40:09;;;;;;;;;;;22.00;52.00;;;;;;4967537;28;87945;-48
2022/05/14 00:42:35;;;;;;;;;;;22.00;51.90;;;;;;4967662;28;87025;-48
2022/05/14 00:45:01;;;;;;;;;;;22.00;51.90;;;;;;4968225;28;86954;-48
2022/05/14 00:47:28;;;;;;;;;;;21.90;51.90;;;;;;4967396;28;88531;-48
2022/05/14 00:49:54;;;;;;;;;;;21.90;51.90;;;;;;4967858;28;86897;-49
2022/05/14 00:52:22;;;;;;;;;;;21.90;51.90;;;;;;4970762;28;86916;-48
2022/05/14 00:54:47;;;;;;;;;;;21.90;51.90;;;;;;4967617;28;86873;-48
2022/05/14 00:57:15;;;;;;;;;;;21.90;52.00;;;;;;4967788;28;87098;-48
2022/05/14 00:59:41;;;;;;;;;;;21.90;51.90;;;;;;4966598;28;89322;-48
2022/05/14 01:02:07;;;;;;;;;;;21.90;52.00;;;;;;4968010;28;86840;-51
2022/05/14 01:04:33;;;;;;;;;;;21.90;51.90;;;;;;4967679;28;88023;-48
2022/05/14 01:07:09;;;;;;;;;;;21.80;51.90;;;;;;4967047;28;88763;-48
2022/05/14 01:09:35;;;;;;;;;;;21.80;51.90;;;;;;4966916;28;86950;-48
2022/05/14 01:12:01;;;;;;;;;;;21.80;51.80;;;;;;4969926;28;86989;-48
2022/05/14 01:14:26;;;;;;;;;;;21.80;51.90;;;;;;4967395;28;86916;-47
2022/05/14 01:16:52;;;;;;;;;;;21.80;51.90;;;;;;4967984;28;87675;-48
2022/05/14 01:19:18;;;;;;;;;;;21.80;51.90;;;;;;4967277;28;87706;-48
2022/05/14 01:21:43;;;;;;;;;;;21.70;51.90;;;;;;4966744;28;86946;-48
2022/05/14 01:27:08;;;;;;;;;;;21.70;51.90;;;;;;4967133;28;87156;-48
2022/05/14 01:29:34;;;;;;;;;;;21.70;51.90;;;;;;4967278;28;86864;-48
2022/05/14 01:32:00;;;;;;;;;;;21.70;52.60;;;;;;4967168;28;87904;-48
2022/05/14 01:34:33;;;;;;;;;;;21.60;51.90;;;;;;4969573;28;88536;-47
2022/05/14 01:36:59;;;;;;;;;;;21.60;51.90;;;;;;4967139;28;87256;-48
2022/05/14 01:39:25;;;;;;;;;;;21.60;51.90;;;;;;4966730;28;87672;-48
2022/05/14 01:41:51;;;;;;;;;;;21.60;52.60;;;;;;4967389;28;86521;-48
2022/05/14 01:44:17;;;;;;;;;;;21.60;51.90;;;;;;4967019;28;86795;-47
2022/05/14 01:46:43;;;;;;;;;;;21.50;51.90;;;;;;4966142;28;88569;-48
2022/05/14 01:49:09;;;;;;;;;;;21.60;51.90;;;;;;4965785;28;88059;-48
2022/05/14 01:51:35;;;;;;;;;;;21.50;51.90;;;;;;4967166;28;87674;-48
2022/05/14 01:54:00;;;;;;;;;;;21.50;52.50;;;;;;4966597;28;87475;-47
2022/05/14 01:56:26;;;;;;;;;;;21.50;51.90;;;;;;4969894;28;86947;-48
2022/05/14 01:58:52;;;;;;;;;;;21.50;51.90;;;;;;4966679;28;87477;-48
2022/05/14 02:01:19;;;;;;;;;;;21.50;51.90;;;;;;4966758;28;86852;-48
2022/05/14 02:03:46;;;;;;;;;;;21.50;51.90;;;;;;4966689;28;88083;-48
2022/05/14 02:06:13;;;;;;;;;;;21.40;51.90;;;;;;4967096;28;86154;-48
2022/05/14 02:08:38;;;;;;;;;;;21.40;52.00;;;;;;4966417;28;86964;-48
2022/05/14 02:11:04;;;;;;;;;;;21.40;51.90;;;;;;4966596;28;88117;-48
2022/05/14 02:13:30;;;;;;;;;;;21.40;52.00;;;;;;4965491;28;88559;-47
2022/05/14 02:15:56;;;;;;;;;;;21.40;51.90;;;;;;4966701;28;86867;-48
2022/05/14 02:18:22;;;;;;;;;;;21.30;51.80;;;;;;4969125;28;88146;-47
2022/05/14 02:20:48;;;;;;;;;;;21.30;51.90;;;;;;4966680;28;86831;-48
2022/05/14 02:23:14;;;;;;;;;;;21.30;51.90;;;;;;4966576;28;87968;-48
2022/05/14 02:25:41;;;;;;;;;;;21.30;52.00;;;;;;4965972;28;88406;-48
2022/05/14 02:28:06;;;;;;;;;;;21.30;52.10;;;;;;4966386;28;86969;-48
2022/05/14 02:30:32;;;;;;;;;;;21.30;52.10;;;;;;4967229;28;86927;-47
2022/05/14 02:32:58;;;;;;;;;;;21.30;52.00;;;;;;4965997;28;87780;-48
2022/05/14 02:35:23;;;;;;;;;;;21.20;52.00;;;;;;4966519;28;86850;-48
2022/05/14 02:37:49;;;;;;;;;;;21.20;52.00;;;;;;4965721;28;87817;-48
2022/05/14 02:40:15;;;;;;;;;;;21.20;52.00;;;;;;4968862;28;88633;-47
2022/05/14 02:42:41;;;;;;;;;;;21.20;52.10;;;;;;4966141;28;88172;-48
2022/05/14 02:45:07;;;;;;;;;;;21.10;52.00;;;;;;4966142;28;87481;-47
2022/05/14 02:47:32;;;;;;;;;;;21.10;52.00;;;;;;4966196;28;86881;-47
2022/05/14 02:49:58;;;;;;;;;;;21.10;52.10;;;;;;4966243;28;87666;-48
2022/05/14 02:52:24;;;;;;;;;;;21.10;52.00;;;;;;4964999;28;87606;-48
2022/05/14 02:54:50;;;;;;;;;;;21.10;52.00;;;;;;4966522;28;86305;-48
2022/05/14 02:57:16;;;;;;;;;;;21.00;52.10;;;;;;4966101;28;87189;-48
2022/05/14 02:59:42;;;;;;;;;;;21.00;52.10;;;;;;4968870;28;86839;-48
2022/05/14 03:02:07;;;;;;;;;;;21.00;52.10;;;;;;4971220;28;87844;-51
2022/05/14 03:04:37;;;;;;;;;;;21.00;52.10;;;;;;4969210;28;87623;-48
2022/05/14 03:07:07;;;;;;;;;;;21.00;52.10;;;;;;4969442;28;86919;-48
2022/05/14 03:09:33;;;;;;;;;;;21.00;52.10;;;;;;4969126;28;88065;-48
2022/05/14 03:11:59;;;;;;;;;;;20.90;52.10;;;;;;4968868;28;88492;-48
2022/05/14 03:14:25;;;;;;;;;;;20.90;52.10;;;;;;4969632;28;86834;-47
2022/05/14 03:16:51;;;;;;;;;;;20.90;52.10;;;;;;4969415;28;86842;-47
2022/05/14 03:19:17;;;;;;;;;;;20.90;52.20;;;;;;4969580;28;86144;-47
2022/05/14 03:21:42;;;;;;;;;;;20.80;52.10;;;;;;4972055;28;86877;-48
2022/05/14 03:24:10;;;;;;;;;;;20.80;52.10;;;;;;4969017;28;87256;-48
2022/05/14 03:26:36;;;;;;;;;;;20.80;52.10;;;;;;4968550;28;88271;-47
2022/05/14 03:29:02;;;;;;;;;;;20.80;52.10;;;;;;4969417;28;88135;-48
2022/05/14 03:31:29;;;;;;;;;;;20.80;52.30;;;;;;4968656;28;88489;-48
2022/05/14 03:33:54;;;;;;;;;;;20.80;52.10;;;;;;4969270;28;86932;-47
2022/05/14 03:36:20;;;;;;;;;;;20.70;52.10;;;;;;4969148;28;86878;-48
2022/05/14 03:38:46;;;;;;;;;;;20.70;52.80;;;;;;4968583;28;88878;-47
2022/05/14 03:41:12;;;;;;;;;;;20.70;52.20;;;;;;4969061;28;86908;-48
2022/05/14 03:43:38;;;;;;;;;;;20.70;52.10;;;;;;4971871;28;87256;-47
2022/05/14 03:46:04;;;;;;;;;;;20.70;52.20;;;;;;4968837;28;86882;-47
2022/05/14 03:48:30;;;;;;;;;;;20.70;52.20;;;;;;4968755;28;88432;-47
2022/05/14 03:50:56;;;;;;;;;;;20.60;52.20;;;;;;4967962;28;87814;-47
2022/05/14 03:53:22;;;;;;;;;;;20.60;52.20;;;;;;4968783;28;86866;-48
2022/05/14 03:55:48;;;;;;;;;;;20.60;52.20;;;;;;4968633;28;87222;-47
2022/05/14 03:58:14;;;;;;;;;;;20.60;52.30;;;;;;4968200;28;88717;-47
2022/05/14 04:00:39;;;;;;;;;;;20.60;52.20;;;;;;4968727;28;86887;-47
2022/05/14 04:03:07;;;;;;;;;;;20.50;52.30;;;;;;4968675;28;87107;-47
2022/05/14 04:05:32;;;;;;;;;;;20.50;52.30;;;;;;4971036;28;88441;-48
2022/05/14 04:07:58;;;;;;;;;;;20.50;52.20;;;;;;4968856;28;86885;-48
2022/05/14 04:10:23;;;;;;;;;;;20.50;52.30;;;;;;4967779;28;86831;-47
2022/05/14 04:12:49;;;;;;;;;;;20.50;52.30;;;;;;4968291;28;86900;-47
2022/05/14 04:15:15;;;;;;;;;;;20.50;52.30;;;;;;4967728;28;87783;-48
2022/05/14 04:17:41;;;;;;;;;;;20.50;52.40;;;;;;4967914;28;87673;-47
2022/05/14 04:20:07;;;;;;;;;;;20.50;52.30;;;;;;4968312;28;86940;-47
2022/05/14 04:22:33;;;;;;;;;;;20.40;52.30;;;;;;4968260;28;88061;-47
2022/05/14 04:24:59;;;;;;;;;;;20.40;52.40;;;;;;4967805;28;87830;-48
2022/05/14 04:27:24;;;;;;;;;;;20.40;52.40;;;;;;4971030;28;86917;-48
2022/05/14 04:29:52;;;;;;;;;;;20.40;52.40;;;;;;4967987;28;87385;-47
2022/05/14 04:32:17;;;;;;;;;;;20.40;52.40;;;;;;4968272;28;86289;-48
2022/05/14 04:34:43;;;;;;;;;;;20.30;52.40;;;;;;4968125;28;87400;-48
2022/05/14 04:37:09;;;;;;;;;;;20.30;52.50;;;;;;4967551;28;87633;-47
2022/05/14 04:39:34;;;;;;;;;;;20.30;52.50;;;;;;4967660;28;87820;-48
2022/05/14 04:42:04;;;;;;;;;;;20.30;52.40;;;;;;4967848;28;89194;-47
2022/05/14 04:44:33;;;;;;;;;;;20.30;52.50;;;;;;4967418;28;89744;-48
2022/05/14 04:47:00;;;;;;;;;;;20.30;52.60;;;;;;4968052;28;86885;-47
2022/05/14 04:49:27;;;;;;;;;;;20.30;52.50;;;;;;4969659;28;86855;-48
2022/05/14 04:51:53;;;;;;;;;;;20.30;52.60;;;;;;4967873;28;86916;-47
2022/05/14 04:54:19;;;;;;;;;;;20.20;52.60;;;;;;4967904;28;88002;-48
2022/05/14 04:56:44;;;;;;;;;;;20.20;52.60;;;;;;4968108;28;86759;-47
2022/05/14 04:59:10;;;;;;;;;;;20.20;52.60;;;;;;4967635;28;86955;-47
2022/05/14 05:01:36;;;;;;;;;;;20.30;52.50;;;;;;4967613;28;88124;-47
2022/05/14 05:04:02;;;;;;;;;;;20.20;52.60;;;;;;4966069;28;89944;-47
2022/05/14 05:06:28;;;;;;;;;;;20.20;52.70;;;;;;4967119;28;86950;-48
2022/05/14 05:08:54;;;;;;;;;;;20.20;52.60;;;;;;4966370;28;87639;-49
2022/05/14 05:11:20;;;;;;;;;;;20.20;52.60;;;;;;4969776;28;87365;-47
2022/05/14 05:13:45;;;;;;;;;;;20.20;52.80;;;;;;4967478;28;87277;-48
2022/05/14 05:16:11;;;;;;;;;;;20.20;52.80;;;;;;4966870;28;88606;-48
2022/05/14 05:18:37;;;;;;;;;;;20.20;52.80;;;;;;4967168;28;86997;-47
2022/05/14 05:21:02;;;;;;;;;;;20.10;52.80;;;;;;4966725;28;86805;-48
2022/05/14 05:23:28;;;;;;;;;;;20.10;52.80;;;;;;4966673;28;87408;-48
2022/05/14 05:25:55;;;;;;;;;;;20.10;52.80;;;;;;4967143;28;87333;-48
2022/05/14 05:28:21;;;;;;;;;;;20.10;52.80;;;;;;4966016;28;87929;-48
2022/05/14 05:30:46;;;;;;;;;;;20.20;52.80;;;;;;4969481;28;86853;-48
2022/05/14 05:33:13;;;;;;;;;;;20.10;52.80;;;;;;4966654;28;87847;-48
2022/05/14 05:35:39;;;;;;;;;;;20.10;52.80;;;;;;4966486;28;87546;-48
2022/05/14 05:38:04;;;;;;;;;;;20.10;52.80;;;;;;4966640;28;87196;-47
2022/05/14 05:40:30;;;;;;;;;;;20.10;52.70;;;;;;4966667;28;88138;-48
2022/05/14 05:42:55;;;;;;;;;;;20.10;52.70;;;;;;4966117;28;88366;-48
2022/05/14 05:45:21;;;;;;;;;;;20.20;52.80;;;;;;4966986;28;86215;-48
2022/05/14 05:47:47;;;;;;;;;;;20.20;52.80;;;;;;4966711;28;87140;-47
2022/05/14 05:50:12;;;;;;;;;;;20.10;52.90;;;;;;4966323;28;88532;-48
2022/05/14 05:52:38;;;;;;;;;;;20.10;52.80;;;;;;4968909;28;87828;-47
2022/05/14 05:57:48;;;;;;;;;;;20.10;52.90;;;;;;4963681;28;86920;-48
2022/05/14 06:00:19;;;;;;;;;;;20.10;52.90;;;;;;4966539;28;87005;-48
2022/05/14 06:02:46;;;;;;;;;;;20.10;53.00;;;;;;4965938;28;88605;-48
2022/05/14 06:05:11;;;;;;;;;;;20.10;53.00;;;;;;4966229;28;86894;-48
2022/05/14 06:07:39;;;;;;;;;;;20.00;53.10;;;;;;4966261;28;87764;-48
2022/05/14 06:10:06;;;;;;;;;;;20.00;53.10;;;;;;4966271;28;87894;-48
2022/05/14 06:12:32;;;;;;;;;;;20.00;53.20;;;;;;4966039;28;87162;-47
2022/05/14 06:14:57;;;;;;;;;;;20.00;53.20;;;;;;4968668;28;87949;-47
2022/05/14 06:17:23;;;;;;;;;;;20.00;53.30;;;;;;4966194;28;87842;-47
2022/05/14 06:19:49;;;;;;;;;;;20.00;53.20;;;;;;4966412;28;89074;-47
2022/05/14 06:22:14;;;;;;;;;;;20.00;53.10;;;;;;4966138;28;87616;-49
2022/05/14 06:24:40;;;;;;;;;;;20.00;53.20;;;;;;4966200;28;86953;-47
2022/05/14 06:27:05;;;;;;;;;;;20.00;53.30;;;;;;4966021;28;86920;-47
2022/05/14 06:29:31;;;;;;;;;;;20.00;53.20;;;;;;4965499;28;88300;-49
2022/05/14 06:31:57;;;;;;;;;;;20.00;53.20;;;;;;4966089;28;86827;-47
2022/05/14 06:34:23;;;;;;;;;;;20.00;53.20;;;;;;4969878;28;87178;-48
2022/05/14 06:36:52;;;;;;;;;;;20.00;53.20;;;;;;4971828;28;88336;-47
2022/05/14 06:39:18;;;;;;;;;;;20.00;53.10;;;;;;4969411;28;86951;-47
2022/05/14 06:41:44;;;;;;;;;;;20.00;53.00;;;;;;4968185;28;89611;-47
2022/05/14 06:44:09;;;;;;;;;;;20.00;53.00;;;;;;4969136;28;86898;-48
2022/05/14 06:46:35;;;;;;;;;;;20.00;53.00;;;;;;4969349;28;86855;-48
2022/05/14 06:49:02;;;;;;;;;;;20.10;53.10;;;;;;4968630;28;88620;-47
2022/05/14 06:51:28;;;;;;;;;;;20.00;53.10;;;;;;4969034;28;86938;-47
2022/05/14 06:53:56;;;;;;;;;;;20.00;53.10;;;;;;4968868;28;88148;-47
2022/05/14 06:56:22;;;;;;;;;;;20.10;53.20;;;;;;4968452;28;88602;-48
2022/05/14 06:58:49;;;;;;;;;;;20.10;53.30;;;;;;4972195;28;86094;-47
2022/05/14 07:01:16;;;;;;;;;;;20.10;53.40;;;;;;4968627;28;88590;-47
2022/05/14 07:06:38;;;;;;;;;;;20.10;53.30;;;;;;4968603;28;87810;-47
2022/05/14 07:09:05;;;;;;;;;;;20.10;53.30;;;;;;4968137;28;88958;-48
2022/05/14 07:11:32;;;;;;;;;;;20.10;53.50;;;;;;4969195;28;86788;-48
2022/05/14 07:13:58;;;;;;;;;;;20.10;53.40;;;;;;4968849;28;88086;-47
2022/05/14 07:16:24;;;;;;;;;;;20.10;53.50;;;;;;4968428;28;88493;-48
2022/05/14 07:18:50;;;;;;;;;;;20.10;53.50;;;;;;4968626;28;86979;-48
2022/05/14 07:21:16;;;;;;;;;;;20.10;53.70;;;;;;4971177;28;87785;-47
2022/05/14 07:23:41;;;;;;;;;;;20.10;53.70;;;;;;4969459;28;86136;-47
2022/05/14 07:26:07;;;;;;;;;;;20.10;53.70;;;;;;4968781;28;86861;-47
2022/05/14 07:28:34;;;;;;;;;;;20.10;53.70;;;;;;4968214;28;87558;-48
2022/05/14 07:31:01;;;;;;;;;;;20.10;53.70;;;;;;4968020;28;87789;-47
2022/05/14 07:33:27;;;;;;;;;;;20.10;53.70;;;;;;4968558;28;88817;-48
2022/05/14 07:35:53;;;;;;;;;;;20.10;53.60;;;;;;4968477;28;87488;-47
2022/05/14 07:38:18;;;;;;;;;;;20.10;53.60;;;;;;4969046;28;86858;-48
2022/05/14 07:40:44;;;;;;;;;;;20.10;53.70;;;;;;4971441;28;88120;-48
2022/05/14 07:43:32;;;;;;;;;;;20.10;53.70;;;;;;4968184;28;86891;-47
2022/05/14 07:46:00;;;;;;;;;;;20.20;53.70;;;;;;4968195;28;87988;-47
2022/05/14 07:48:28;;;;;;;;;;;20.20;53.70;;;;;;4968520;28;87895;-47
2022/05/14 07:50:54;;;;;;;;;;;20.20;53.80;;;;;;4968546;28;87150;-47
2022/05/14 07:53:20;;;;;;;;;;;20.20;53.80;;;;;;4968434;28;86942;-47
2022/05/14 07:55:45;;;;;;;;;;;20.20;53.90;;;;;;4966984;28;89084;-48
2022/05/14 07:58:11;;;;;;;;;;;20.20;53.90;;;;;;4968332;28;86957;-47
2022/05/14 08:00:37;;;;;;;;;;;20.20;53.90;;;;;;4967929;28;87975;-48
2022/05/14 08:03:05;;;;;;;;;;;20.20;53.90;;;;;;4970645;28;88461;-47
2022/05/14 08:05:30;;;;;;;;;;;20.20;53.90;;;;;;4967843;28;87019;-47
2022/05/14 08:07:57;;;;;;;;;;;20.10;54.00;;;;;;4967579;28;87669;-47
2022/05/14 08:10:22;;;;;;;;;;;20.10;54.60;;;;;;4967618;28;86912;-48
2022/05/14 08:12:51;;;;;;;;;;;20.20;54.10;;;;;;4968526;28;86864;-47
2022/05/14 08:15:18;;;;;;;;;;;20.20;54.00;;;;;;4967437;28;88000;-48
2022/05/14 08:17:44;;;;;;;;;;;20.20;54.10;;;;;;4967715;28;87308;-48
2022/05/14 08:20:10;;;;;;;;;;;20.20;54.00;;;;;;4966912;28;87845;-47
2022/05/14 08:25:20;;;;;;;;;;;20.20;54.10;;;;;;4967492;28;86908;-48
2022/05/14 08:27:45;;;;;;;;;;;20.20;54.00;;;;;;4967274;28;87401;-47
2022/05/14 08:30:11;;;;;;;;;;;20.30;54.10;;;;;;4966829;28;87143;-47
2022/05/14 08:32:36;;;;;;;;;;;20.20;54.00;;;;;;4967495;28;87856;-47
2022/05/14 08:35:02;;;;;;;;;;;20.30;54.10;;;;;;4967313;28;88533;-49
2022/05/14 08:37:28;;;;;;;;;;;20.30;54.10;;;;;;4968074;28;86144;-47
2022/05/14 08:39:53;;;;;;;;;;;20.30;54.20;;;;;;4967738;28;86878;-48
2022/05/14 08:42:19;;;;;;;;;;;20.30;54.10;;;;;;4967177;28;88801;-47
2022/05/14 08:44:46;;;;;;;;;;;20.30;54.30;;;;;;4966967;28;87772;-48
2022/05/14 08:47:32;;;;;;;;;;;20.30;54.50;;;;;;4970253;28;87679;-49
2022/05/14 08:49:57;;;;;;;;;;;20.30;54.60;;;;;;4967221;28;87222;-48
2022/05/14 08:52:24;;;;;;;;;;;20.30;54.70;;;;;;4967529;28;87100;-47
2022/05/14 08:54:52;;;;;;;;;;;20.30;54.60;;;;;;4966987;28;87469;-47
2022/05/14 08:57:25;;;;;;;;;;;20.30;54.70;;;;;;4966147;28;86877;-48
2022/05/14 08:59:55;;;;;;;;;;;20.30;54.90;;;;;;4967284;28;87071;-47
2022/05/14 09:02:24;;;;;;;;;;;20.30;54.90;;;;;;4967200;28;87603;-47
2022/05/14 09:04:55;;;;;;;;;;;20.30;54.90;;;;;;4967176;28;86896;-47
2022/05/14 09:07:20;;;;;;;;;;;20.30;54.70;;;;;;4967322;28;87258;-47
2022/05/14 09:09:47;;;;;;;;;;;20.30;54.70;;;;;;4968271;28;88701;-49
2022/05/14 09:12:16;;;;;;;;;;;20.30;54.90;;;;;;4966984;28;88658;-47
2022/05/14 09:14:44;;;;;;;;;;;20.30;54.90;;;;;;4966438;28;88206;-48
2022/05/14 09:17:12;;;;;;;;;;;20.30;54.80;;;;;;4966856;28;86874;-48
2022/05/14 09:19:39;;;;;;;;;;;20.30;54.70;;;;;;4967021;28;86861;-47
2022/05/14 09:22:09;;;;;;;;;;;20.30;55.00;;;;;;4966583;28;87711;-47
2022/05/14 09:24:38;;;;;;;;;;;20.30;55.10;;;;;;4966833;28;86900;-47
2022/05/14 09:27:12;;;;;;;;;;;20.30;54.90;;;;;;4967458;28;86148;-48
2022/05/14 09:29:40;;;;;;;;;;;20.30;55.70;;;;;;4966425;28;88710;-47
2022/05/14 09:32:10;;;;;;;;;;;20.30;54.90;;;;;;4969657;28;87279;-49
2022/05/14 09:34:36;;;;;;;;;;;20.30;55.10;;;;;;4965917;28;88182;-47
2022/05/14 09:37:09;;;;;;;;;;;20.30;55.10;;;;;;4966701;28;87272;-50
2022/05/14 09:39:35;;;;;;;;;;;20.40;55.10;;;;;;4965838;28;87048;-47
2022/05/14 09:42:01;;;;;;;;;;;20.40;55.70;;;;;;4966417;28;87005;-47
2022/05/14 09:44:30;;;;;;;;;;;20.40;55.70;;;;;;4966283;28;87097;-50
2022/05/14 09:47:07;;;;;;;;;;;20.40;55.60;;;;;;4966535;28;87974;-47
2022/05/14 09:49:33;;;;;;;;;;;20.40;55.70;;;;;;4966130;28;87334;-47
2022/05/14 09:52:04;;;;;;;;;;;20.40;55.90;;;;;;4970221;28;86215;-47
2022/05/14 09:54:30;;;;;;;;;;;20.40;55.90;;;;;;4965758;28;87590;-48
2022/05/14 09:57:14;;;;;;;;;;;20.40;56.10;;;;;;4966237;28;86898;-48
2022/05/14 09:59:49;;;;;;;;;;;20.40;56.10;;;;;;4965837;28;88148;-47
2022/05/14 10:02:25;;;;;;;;;;;20.40;56.10;;;;;;4965721;28;88545;-48
2022/05/14 10:05:00;;;;;;;;;;;20.40;56.10;;;;;;4966235;28;86961;-47
2022/05/14 10:07:39;;;;;;;;;;;20.40;55.90;;;;;;4965646;28;87838;-48
2022/05/14 10:10:08;;;;;;;;;;;20.50;55.70;;;;;;4965279;28;87852;-51
2022/05/14 10:12:38;;;;;;;;;;;20.50;55.80;;;;;;4966632;28;86872;-47
2022/05/14 10:15:22;;;;;;;;;;;20.50;56.10;;;;;;4968710;28;87174;-48
2022/05/14 10:18:09;;;;;;;;;;;20.50;55.90;;;;;;4966701;28;86150;-47
2022/05/14 10:20:37;;;;;;;;;;;20.50;55.50;;;;;;4966034;28;87225;-48
2022/05/14 10:29:02;;;;;;;;;;;20.50;55.60;;;;;;4966122;28;87485;-48
2022/05/14 10:31:34;;;;;;;;;;;20.50;55.70;;;;;;4965728;28;87496;-47
2022/05/14 10:34:02;;;;;;;;;;;20.60;55.60;;;;;;4965307;28;87257;-47
2022/05/14 10:36:37;;;;;;;;;;;20.60;55.60;;;;;;4966001;28;86886;-48
2022/05/14 10:39:13;;;;;;;;;;;20.60;55.70;;;;;;4967619;28;87616;-47
2022/05/14 10:41:44;;;;;;;;;;;20.60;55.90;;;;;;4965839;28;87965;-47
2022/05/14 10:44:33;;;;;;;;;;;20.60;55.70;;;;;;4966070;28;86812;-47
2022/05/14 10:47:01;;;;;;;;;;;20.60;56.10;;;;;;4954457;28;87160;-48
2022/05/14 10:49:39;;;;;;;;;;;20.60;56.10;;;;;;4965739;28;88334;-47
2022/05/14 10:52:08;;;;;;;;;;;20.70;56.10;;;;;;4964755;28;88828;-48
2022/05/14 10:54:34;;;;;;;;;;;20.70;55.90;;;;;;4965805;28;86995;-48
2022/05/14 10:57:01;;;;;;;;;;;20.70;55.90;;;;;;4965179;28;87040;-48
2022/05/14 10:59:32;;;;;;;;;;;20.70;56.20;;;;;;4965040;28;87570;-47
2022/05/14 11:01:57;;;;;;;;;;;20.70;56.00;;;;;;4968587;28;87086;-47
2022/05/14 11:04:25;;;;;;;;;;;20.70;56.30;;;;;;4964998;28;88600;-47
2022/05/14 11:06:58;;;;;;;;;;;20.70;56.50;;;;;;4965260;28;86875;-47
2022/05/14 11:09:41;;;;;;;;;;;20.80;56.80;;;;;;4965296;28;88052;-48
2022/05/14 11:12:09;;;;;;;;;;;20.80;56.90;;;;;;4965083;28;87502;-49
2022/05/14 11:14:36;;;;;;;;;;;20.80;56.70;;;;;;4965450;28;86971;-47
2022/05/14 11:17:02;;;;;;;;;;;20.80;56.60;;;;;;4964951;28;87883;-48
2022/05/14 11:19:32;;;;;;;;;;;20.80;56.50;;;;;;4966576;28;87544;-47
2022/05/14 11:21:59;;;;;;;;;;;20.80;56.30;;;;;;4968700;28;86907;-48
2022/05/14 11:24:39;;;;;;;;;;;20.90;56.00;;;;;;4971427;28;86902;-49
2022/05/14 11:27:05;;;;;;;;;;;20.90;56.10;;;;;;4968422;28;86866;-49
2022/05/14 11:29:34;;;;;;;;;;;20.90;56.00;;;;;;4968498;28;88014;-48
2022/05/14 11:32:02;;;;;;;;;;;20.90;55.60;;;;;;4967505;28;87872;-48
2022/05/14 11:34:28;;;;;;;;;;;21.00;55.70;;;;;;4968971;28;86160;-49
2022/05/14 11:36:56;;;;;;;;;;;21.00;55.90;;;;;;4968482;28;86952;-47
2022/05/14 11:39:22;;;;;;;;;;;21.10;55.50;;;;;;4968001;28;87886;-49
2022/05/14 11:41:52;;;;;;;;;;;21.10;55.50;;;;;;4967670;28;87915;-48
2022/05/14 11:44:35;;;;;;;;;;;21.10;55.60;;;;;;4970775;28;88472;-48
2022/05/14 11:47:02;;;;;;;;;;;21.00;55.60;;;;;;4968218;28;86954;-48
2022/05/14 11:49:27;;;;;;;;;;;21.00;55.80;;;;;;4968338;28;87049;-48
2022/05/14 11:51:53;;;;;;;;;;;21.00;55.70;;;;;;4967859;28;88715;-49
2022/05/14 11:54:48;;;;;;;;;;;21.00;55.80;;;;;;4968402;28;87372;-48
2022/05/14 11:57:17;;;;;;;;;;;21.00;55.80;;;;;;4897723;28;87028;-48
2022/05/14 11:59:58;;;;;;;;;;;21.00;55.90;;;;;;4968163;28;87997;-47
2022/05/14 12:02:30;;;;;;;;;;;21.00;56.20;;;;;;4967824;28;86963;-49
2022/05/14 12:04:57;;;;;;;;;;;21.00;55.90;;;;;;4968057;28;86801;-49
2022/05/14 12:07:22;;;;;;;;;;;21.00;56.20;;;;;;4970020;28;87856;-48
2022/05/14 12:09:54;;;;;;;;;;;21.00;56.20;;;;;;4967848;28;89024;-48
2022/05/14 12:12:22;;;;;;;;;;;21.00;56.40;;;;;;4966771;28;87657;-49
2022/05/14 12:14:49;;;;;;;;;;;21.00;56.40;;;;;;4967868;28;87154;-48
2022/05/14 12:17:16;;;;;;;;;;;21.00;56.50;;;;;;4967597;28;88130;-48
2022/05/14 12:19:44;;;;;;;;;;;21.00;56.60;;;;;;4967551;28;87856;-48
2022/05/14 12:22:15;;;;;;;;;;;21.00;56.60;;;;;;4967552;28;86883;-48
2022/05/14 12:24:51;;;;;;;;;;;21.00;56.70;;;;;;4967901;28;88101;-48
2022/05/14 12:27:18;;;;;;;;;;;21.00;56.60;;;;;;4967236;28;88768;-48
2022/05/14 12:30:02;;;;;;;;;;;21.00;56.70;;;;;;4970441;28;86947;-47
2022/05/14 12:35:15;;;;;;;;;;;21.00;56.60;;;;;;4967651;28;86891;-48
2022/05/14 12:37:41;;;;;;;;;;;21.00;56.60;;;;;;4967420;28;87926;-48
2022/05/14 12:40:09;;;;;;;;;;;21.00;56.50;;;;;;4967018;28;88413;-48
2022/05/14 12:42:38;;;;;;;;;;;21.00;56.40;;;;;;4967740;28;86880;-48
2022/05/14 12:45:05;;;;;;;;;;;21.00;56.50;;;;;;4967677;28;86968;-48
2022/05/14 12:47:31;;;;;;;;;;;21.00;56.50;;;;;;4966267;28;86855;-48
2022/05/14 12:49:57;;;;;;;;;;;21.00;56.40;;;;;;4967783;28;86187;-48
2022/05/14 12:52:24;;;;;;;;;;;21.00;56.40;;;;;;4968905;28;86893;-48
2022/05/14 12:54:55;;;;;;;;;;;21.00;56.40;;;;;;4967151;28;86834;-48
2022/05/14 12:57:22;;;;;;;;;;;20.90;56.40;;;;;;4966555;28;87888;-48
2022/05/14 12:59:47;;;;;;;;;;;20.90;56.40;;;;;;4966693;28;88476;-48
2022/05/14 13:02:19;;;;;;;;;;;20.90;56.40;;;;;;4967452;28;86990;-48
2022/05/14 13:04:48;;;;;;;;;;;20.90;56.30;;;;;;4967272;28;86853;-48
2022/05/14 13:07:13;;;;;;;;;;;20.90;56.30;;;;;;4966645;28;86944;-48
2022/05/14 13:09:40;;;;;;;;;;;20.90;56.30;;;;;;4966730;28;86982;-49
2022/05/14 13:12:06;;;;;;;;;;;20.90;56.40;;;;;;4966900;28;86943;-48
2022/05/14 13:14:34;;;;;;;;;;;21.00;56.40;;;;;;4969676;28;88911;-48
2022/05/14 13:17:01;;;;;;;;;;;20.90;56.30;;;;;;4967021;28;86895;-47
2022/05/14 13:19:40;;;;;;;;;;;20.90;56.40;;;;;;4966678;28;86851;-49
2022/05/14 13:22:09;;;;;;;;;;;20.90;56.30;;;;;;4966072;28;88179;-48
2022/05/14 13:24:35;;;;;;;;;;;20.90;56.40;;;;;;4966679;28;89025;-48
2022/05/14 13:27:03;;;;;;;;;;;20.90;56.40;;;;;;4966124;28;87672;-49
2022/05/14 13:29:36;;;;;;;;;;;20.90;56.30;;;;;;4966621;28;86870;-47
2022/05/14 13:32:09;;;;;;;;;;;20.90;56.30;;;;;;4966504;28;88397;-47
2022/05/14 13:37:23;;;;;;;;;;;20.90;56.30;;;;;;4966321;28;86889;-48
2022/05/14 13:39:50;;;;;;;;;;;20.90;56.40;;;;;;4966407;28;86862;-47
2022/05/14 13:42:26;;;;;;;;;;;20.90;56.40;;;;;;4964886;28;87041;-48
2022/05/14 13:45:12;;;;;;;;;;;20.90;56.40;;;;;;4966164;28;88133;-47
2022/05/14 13:47:40;;;;;;;;;;;20.90;56.40;;;;;;4950809;28;88465;-47
2022/05/14 13:50:06;;;;;;;;;;;21.00;56.40;;;;;;4966680;28;87121;-48
2022/05/14 13:52:35;;;;;;;;;;;20.90;56.40;;;;;;4966331;28;86859;-48
2022/05/14 13:55:03;;;;;;;;;;;20.90;56.30;;;;;;4966000;28;88498;-48
2022/05/14 13:57:29;;;;;;;;;;;20.90;56.40;;;;;;4969062;28;86920;-48
2022/05/14 14:00:07;;;;;;;;;;;20.90;56.30;;;;;;4966058;28;88564;-47
2022/05/14 14:02:32;;;;;;;;;;;20.90;56.40;;;;;;4966195;28;87026;-47
2022/05/14 14:05:00;;;;;;;;;;;21.00;56.40;;;;;;4966720;28;87056;-48
2022/05/14 14:07:27;;;;;;;;;;;20.90;56.40;;;;;;4965888;28;88367;-48
2022/05/14 14:09:53;;;;;;;;;;;20.90;56.40;;;;;;4965926;28;86852;-49
2022/05/14 14:12:23;;;;;;;;;;;21.00;56.40;;;;;;4965575;28;88117;-48
2022/05/14 14:14:49;;;;;;;;;;;21.00;56.40;;;;;;4965740;28;88714;-48
2022/05/14 14:17:15;;;;;;;;;;;20.90;56.40;;;;;;4966507;28;86867;-48
2022/05/14 14:19:40;;;;;;;;;;;21.00;56.40;;;;;;4968649;28;87193;-48
2022/05/14 14:22:07;;;;;;;;;;;20.90;56.40;;;;;;4966126;28;86863;-48
2022/05/14 14:24:33;;;;;;;;;;;20.90;56.40;;;;;;4966423;28;87137;-48
2022/05/14 14:26:59;;;;;;;;;;;20.90;56.40;;;;;;4965941;28;88483;-48
2022/05/14 14:29:24;;;;;;;;;;;21.00;56.40;;;;;;4966394;28;86194;-49
2022/05/14 14:31:50;;;;;;;;;;;20.90;56.40;;;;;;4966038;28;87464;-48
2022/05/14 14:34:15;;;;;;;;;;;21.00;56.40;;;;;;4965887;28;88410;-48
2022/05/14 14:36:41;;;;;;;;;;;20.90;56.30;;;;;;4965342;28;88017;-47
2022/05/14 14:39:07;;;;;;;;;;;21.00;56.40;;;;;;4966067;28;88242;-48
2022/05/14 14:41:33;;;;;;;;;;;20.90;56.40;;;;;;4968128;28;88555;-47
2022/05/14 14:43:58;;;;;;;;;;;21.00;56.40;;;;;;4965713;28;87905;-48